Nisshoumaru — JD3093 — position and weather

sailwx.info

Track history (hours):
 
Tides and Currents Weather Stations Pressure Air Temp Water Temp Dewpoint Dewpoint Depression Visibility Wind Speed Wind Dir Waves Ship Positions

Nisshoumaru

Last reported at 2016-Sep-26 15:33 UTC. Time now 2016-Sep-26 17:25 UTC.
Position N 35°38' E 139°48'.

Length 76 m; draft 4 m.

Type: Cargo ship. MMSI: 431001549.

Date/timePositionNaut miles runAvg speedWind from/ knotsBaromVisibWave heightAir tempDewpointWater temp
2016-Sep-26 15:33N 35°38' E 139°48'0 0.0
2016-Sep-26 13:33N 35°38' E 139°48'0 0.0
2016-Sep-26 11:34N 35°38' E 139°48'0 0.0
2016-Sep-26 08:33N 35°38' E 139°48'14 2.3
2016-Sep-26 02:33N 35°37' E 140°05'0 0.0
2016-Sep-26 01:33N 35°37' E 140°05'0 0.0
2016-Sep-26 00:33N 35°37' E 140°05'0 0.0
2016-Sep-25 21:33N 35°37' E 140°05'0 0.0
2016-Sep-25 17:33N 35°37' E 140°05'0 0.0
2016-Sep-25 16:33N 35°37' E 140°05'0 0.0
2016-Sep-25 15:33N 35°37' E 140°05'0 0.0
2016-Sep-25 14:33N 35°37' E 140°05'0 0.0
2016-Sep-25 12:33N 35°37' E 140°05'0 0.0
2016-Sep-25 11:33N 35°37' E 140°05'0 0.0
2016-Sep-25 10:33N 35°37' E 140°05'0 0.0
2016-Sep-25 09:33N 35°37' E 140°05'0 0.0
2016-Sep-25 07:33N 35°37' E 140°05'0 0.0
2016-Sep-25 04:33N 35°37' E 140°05'0 0.0
2016-Sep-25 00:33N 35°37' E 140°05'0 0.0
2016-Sep-24 22:33N 35°37' E 140°05'0 0.0
2016-Sep-24 21:33N 35°37' E 140°05'0 0.0
2016-Sep-24 19:33N 35°37' E 140°05'0 0.0
2016-Sep-24 18:33N 35°37' E 140°05'0 0.0
2016-Sep-24 17:33N 35°37' E 140°05'0 0.0
2016-Sep-24 16:33N 35°37' E 140°05'0 0.0
2016-Sep-24 14:33N 35°37' E 140°05'0 0.0
2016-Sep-24 12:33N 35°37' E 140°05'0 0.0
2016-Sep-24 10:33N 35°37' E 140°05'0 0.0
2016-Sep-24 09:33N 35°37' E 140°05'0 0.0
2016-Sep-24 03:33N 35°37' E 140°05'0 0.0
2016-Sep-24 02:33N 35°37' E 140°05'0 0.1
2016-Sep-24 01:33N 35°37' E 140°05'0 0.0
2016-Sep-24 00:33N 35°37' E 140°05'2 0.4
2016-Sep-23 19:25N 35°35' E 140°02'0 0.0
2016-Sep-23 17:31N 35°35' E 140°02'2 2.0
2016-Sep-23 16:34N 35°34' E 140°01'1212.2
2016-Sep-23 15:33N 35°27' E 139°49'2311.5
2016-Sep-23 13:33N 35°04' E 139°45'34 8.4
2016-Sep-23 09:33N 35°10' E 140°26'  
2016-Sep-17 08:23N 35°02' E 140°13'1514.0
2016-Sep-17 07:21N 34°54' E 139°58'16 9.0
2016-Sep-17 05:33N 35°06' E 139°45'1211.6
2016-Sep-17 04:33N 35°18' E 139°44'26 6.4
2016-Sep-17 00:33N 35°41' E 139°58'0 0.0
2016-Sep-16 17:33N 35°41' E 139°58'  
Track history (hours):
 
Tides and Currents Weather Stations Pressure Air Temp Water Temp Dewpoint Dewpoint Depression Visibility Wind Speed Wind Dir Waves Ship Positions

Nisshoumaru

Last reported at 2016-Sep-26 15:33 UTC. Time now 2016-Sep-26 17:25 UTC.
Position N 35°38' E 139°48'.

Length 76 m; draft 4 m.

Type: Cargo ship. MMSI: 431001549.

Date/timePositionNaut miles runAvg speedWind from/ knotsBaromVisibWave heightAir tempDewpointWater temp
2016-Sep-26 15:33N 35°38' E 139°48'0 0.0
2016-Sep-26 13:33N 35°38' E 139°48'0 0.0
2016-Sep-26 11:34N 35°38' E 139°48'0 0.0
2016-Sep-26 08:33N 35°38' E 139°48'14 2.3
2016-Sep-26 02:33N 35°37' E 140°05'0 0.0
2016-Sep-26 01:33N 35°37' E 140°05'0 0.0
2016-Sep-26 00:33N 35°37' E 140°05'0 0.0
2016-Sep-25 21:33N 35°37' E 140°05'0 0.0
2016-Sep-25 17:33N 35°37' E 140°05'0 0.0
2016-Sep-25 16:33N 35°37' E 140°05'0 0.0
2016-Sep-25 15:33N 35°37' E 140°05'0 0.0
2016-Sep-25 14:33N 35°37' E 140°05'0 0.0
2016-Sep-25 12:33N 35°37' E 140°05'0 0.0
2016-Sep-25 11:33N 35°37' E 140°05'0 0.0
2016-Sep-25 10:33N 35°37' E 140°05'0 0.0
2016-Sep-25 09:33N 35°37' E 140°05'0 0.0
2016-Sep-25 07:33N 35°37' E 140°05'0 0.0
2016-Sep-25 04:33N 35°37' E 140°05'0 0.0
2016-Sep-25 00:33N 35°37' E 140°05'0 0.0
2016-Sep-24 22:33N 35°37' E 140°05'0 0.0
2016-Sep-24 21:33N 35°37' E 140°05'0 0.0
2016-Sep-24 19:33N 35°37' E 140°05'0 0.0
2016-Sep-24 18:33N 35°37' E 140°05'0 0.0
2016-Sep-24 17:33N 35°37' E 140°05'0 0.0
2016-Sep-24 16:33N 35°37' E 140°05'0 0.0
2016-Sep-24 14:33N 35°37' E 140°05'0 0.0
2016-Sep-24 12:33N 35°37' E 140°05'0 0.0
2016-Sep-24 10:33N 35°37' E 140°05'0 0.0
2016-Sep-24 09:33N 35°37' E 140°05'0 0.0
2016-Sep-24 03:33N 35°37' E 140°05'0 0.0
2016-Sep-24 02:33N 35°37' E 140°05'0 0.1
2016-Sep-24 01:33N 35°37' E 140°05'0 0.0
2016-Sep-24 00:33N 35°37' E 140°05'2 0.4
2016-Sep-23 19:25N 35°35' E 140°02'0 0.0
2016-Sep-23 17:31N 35°35' E 140°02'2 2.0
2016-Sep-23 16:34N 35°34' E 140°01'1212.2
2016-Sep-23 15:33N 35°27' E 139°49'2311.5
2016-Sep-23 13:33N 35°04' E 139°45'34 8.4
2016-Sep-23 09:33N 35°10' E 140°26'  
2016-Sep-17 08:23N 35°02' E 140°13'1514.0
2016-Sep-17 07:21N 34°54' E 139°58'16 9.0
2016-Sep-17 05:33N 35°06' E 139°45'1211.6
2016-Sep-17 04:33N 35°18' E 139°44'26 6.4
2016-Sep-17 00:33N 35°41' E 139°58'0 0.0
2016-Sep-16 17:33N 35°41' E 139°58'  

Dump ship's entire track history